Time;durP1;ratioP1;P1;durP2;ratioP2;P2;SDS_P1;SDS_P2;PMS_P1;PMS_P2;Temp;Humidity;BMP_temperature;BMP_pressure;BME280_temperature;BME280_humidity;BME280_pressure;Samples;Min_cycle;Max_cycle;Signal;HPM_P1;HPM_P2
2022/09/04 00:00:17;;;;;;;;;;;;;;;23.61;59.95;96775.31;180873;293;620288;-52
2022/09/04 00:01:18;;;;;;;;;;;;;;;23.60;59.91;96772.30;180777;293;587731;-55
2022/09/04 00:02:20;;;;;;;;;;;;;;;23.60;59.94;96772.30;180538;293;620141;-46
2022/09/04 00:03:25;;;;;;;;;;;;;;;23.61;60.00;96776.70;180485;292;620015;-44
2022/09/04 00:04:26;;;;;;;;;;;;;;;23.62;60.02;96776.92;180847;293;592029;-45
2022/09/04 00:05:28;;;;;;;;;;;;;;;23.64;60.04;96781.52;181005;293;620860;-44
2022/09/04 00:06:30;;;;;;;;;;;;;;;23.68;60.00;96780.80;180609;293;620011;-50
2022/09/04 00:07:32;;;;;;;;;;;;;;;23.72;60.01;96784.50;180899;293;620330;-43
2022/09/04 00:08:34;;;;;;;;;;;;;;;23.73;59.93;96786.10;181243;292;621372;-46
2022/09/04 00:09:36;;;;;;;;;;;;;;;23.77;59.89;96785.61;180781;293;619950;-48
2022/09/04 00:10:38;;;;;;;;;;;;;;;23.77;59.84;96782.84;181766;292;620383;-46
2022/09/04 00:11:43;;;;;;;;;;;;;;;23.80;59.81;96782.13;181758;292;619976;-46
2022/09/04 00:12:44;;;;;;;;;;;;;;;23.81;59.80;96779.58;181653;292;588910;-44
2022/09/04 00:13:46;;;;;;;;;;;;;;;23.82;59.74;96779.80;181411;292;620280;-46
2022/09/04 00:14:48;;;;;;;;;;;;;;;23.83;59.67;96782.83;180638;293;621378;-45
2022/09/04 00:15:50;;;;;;;;;;;;;;;23.84;59.66;96783.84;180788;293;622589;-43
2022/09/04 00:16:53;;;;;;;;;;;;;;;23.83;59.63;96780.05;180905;293;619161;-47
2022/09/04 00:17:55;;;;;;;;;;;;;;;23.82;59.60;96786.17;180282;293;622917;-47
2022/09/04 00:18:58;;;;;;;;;;;;;;;23.84;59.57;96780.27;180812;292;618397;-48
2022/09/04 00:20:00;;;;;;;;;;;;;;;23.84;59.59;96781.08;180468;294;621826;-44
2022/09/04 00:21:01;;;;;;;;;;;;;;;23.85;59.54;96787.42;181166;292;617769;-48
2022/09/04 00:22:03;;;;;;;;;;;;;;;23.82;59.50;96777.03;181250;292;621595;-45
2022/09/04 00:23:05;;;;;;;;;;;;;;;23.83;59.50;96780.05;181419;292;621763;-43
2022/09/04 00:24:07;;;;;;;;;;;;;;;23.82;59.49;96784.78;181168;292;620119;-44
2022/09/04 00:25:09;;;;;;;;;;;;;;;23.82;59.50;96779.80;180866;292;621129;-45
2022/09/04 00:26:11;;;;;;;;;;;;;;;23.81;59.51;96780.38;180941;292;620493;-44
2022/09/04 00:27:13;;;;;;;;;;;;;;;23.82;59.50;96778.41;181074;292;622834;-46
2022/09/04 00:28:15;;;;;;;;;;;;;;;23.80;59.51;96777.39;181123;292;618864;-45
2022/09/04 00:29:17;;;;;;;;;;;;;;;23.80;59.50;96776.59;181255;292;620519;-43
2022/09/04 00:30:19;;;;;;;;;;;;;;;23.79;59.47;96781.90;181067;292;620314;-46
2022/09/04 00:31:24;;;;;;;;;;;;;;;23.77;59.47;96782.84;180943;292;620701;-46
2022/09/04 00:32:25;;;;;;;;;;;;;;;23.74;59.49;96780.20;180951;292;587532;-45
2022/09/04 00:33:27;;;;;;;;;;;;;;;23.75;59.52;96786.55;180970;292;621027;-43
2022/09/04 00:34:28;;;;;;;;;;;;;;;23.74;59.54;96783.55;181172;292;620056;-44
2022/09/04 00:35:30;;;;;;;;;;;;;;;23.73;59.53;96781.95;181291;292;621576;-48
2022/09/04 00:36:32;;;;;;;;;;;;;;;23.72;59.54;96784.50;181445;292;621306;-47
2022/09/04 00:37:34;;;;;;;;;;;;;;;23.72;59.55;96784.50;180834;292;620985;-47
2022/09/04 00:38:36;;;;;;;;;;;;;;;23.68;59.53;96783.58;180748;292;620450;-49
2022/09/04 00:39:38;;;;;;;;;;;;;;;23.65;59.53;96784.51;181156;292;620336;-42
2022/09/04 00:40:40;;;;;;;;;;;;;;;23.63;59.56;96786.03;181149;292;621474;-44
2022/09/04 00:41:42;;;;;;;;;;;;;;;23.61;59.58;96786.38;181190;292;620407;-44
2022/09/04 00:42:44;;;;;;;;;;;;;;;23.57;59.60;96784.05;180977;292;621682;-45
2022/09/04 00:43:46;;;;;;;;;;;;;;;23.56;59.63;96785.20;181136;292;619355;-44
2022/09/04 00:44:48;;;;;;;;;;;;;;;23.55;59.66;96787.75;181161;292;621045;-46
2022/09/04 00:45:50;;;;;;;;;;;;;;;23.53;59.68;96787.88;181049;292;620426;-46
2022/09/04 00:46:52;;;;;;;;;;;;;;;23.50;59.73;96790.78;181351;292;619401;-43
2022/09/04 00:47:54;;;;;;;;;;;;;;;23.49;59.77;96790.53;181256;292;621202;-47
2022/09/04 00:48:56;;;;;;;;;;;;;;;23.47;59.76;96787.89;180954;292;621326;-46
2022/09/04 00:49:59;;;;;;;;;;;;;;;23.45;59.80;96785.48;181280;292;620059;-44
2022/09/04 00:51:01;;;;;;;;;;;;;;;23.47;59.82;96785.13;180845;292;621029;-45
2022/09/04 00:52:03;;;;;;;;;;;;;;;23.46;59.84;96790.44;181461;292;620274;-47
2022/09/04 00:53:05;;;;;;;;;;;;;;;23.45;59.83;96791.59;180793;292;621471;-44
2022/09/04 00:54:07;;;;;;;;;;;;;;;23.43;59.88;96790.56;181173;292;622032;-44
2022/09/04 00:55:09;;;;;;;;;;;;;;;23.41;59.90;96795.66;180963;292;620190;-44
2022/09/04 00:56:11;;;;;;;;;;;;;;;23.40;59.92;96794.63;181325;292;621324;-49
2022/09/04 00:57:13;;;;;;;;;;;;;;;23.36;59.96;96793.92;181064;292;621233;-44
2022/09/04 00:58:15;;;;;;;;;;;;;;;23.34;60.00;96794.05;180844;292;621113;-47
2022/09/04 00:59:17;;;;;;;;;;;;;;;23.33;60.03;96796.59;181252;292;621444;-48
2022/09/04 01:00:19;;;;;;;;;;;;;;;23.31;60.04;96798.91;181350;292;619535;-46
2022/09/04 01:01:21;;;;;;;;;;;;;;;23.30;60.10;96800.06;181201;292;621248;-45
2022/09/04 01:03:06;;;;;;;;;;;;;;;23.28;60.15;96802.35;185792;287;528669;-45
2022/09/04 01:04:08;;;;;;;;;;;;;;;23.29;60.14;96808.14;182532;290;620407;-46
2022/09/04 01:05:12;;;;;;;;;;;;;;;23.26;60.13;96802.70;181733;291;621463;-45
2022/09/04 01:06:13;;;;;;;;;;;;;;;23.26;60.10;96808.81;182238;291;591716;-44
2022/09/04 01:07:18;;;;;;;;;;;;;;;23.24;60.13;96805.02;182202;291;620449;-48
2022/09/04 01:08:19;;;;;;;;;;;;;;;23.24;60.14;96809.75;182398;291;587587;-46
2022/09/04 01:09:24;;;;;;;;;;;;;;;23.22;60.13;96806.53;181887;291;621334;-48
2022/09/04 01:10:25;;;;;;;;;;;;;;;23.20;60.15;96806.89;182192;291;621508;-45
2022/09/04 01:11:27;;;;;;;;;;;;;;;23.20;60.19;96806.09;182455;291;620070;-48
2022/09/04 01:12:29;;;;;;;;;;;;;;;23.19;60.26;96806.66;182303;291;620873;-45
2022/09/04 01:13:32;;;;;;;;;;;;;;;23.18;60.30;96805.60;182240;291;620583;-46
2022/09/04 01:14:38;;;;;;;;;;;;;;;23.16;60.34;96812.06;181862;291;621603;-48
2022/09/04 01:15:38;;;;;;;;;;;;;;;23.16;60.47;96809.30;182164;291;588744;-49
2022/09/04 01:16:40;;;;;;;;;;;;;;;23.15;60.56;96811.27;181857;291;621123;-46
2022/09/04 01:17:42;;;;;;;;;;;;;;;23.15;60.46;96809.88;181686;291;621754;-55
2022/09/04 01:18:44;;;;;;;;;;;;;;;23.13;60.46;96799.75;181737;291;618847;-51
2022/09/04 01:19:46;;;;;;;;;;;;;;;23.14;60.44;96803.32;182009;291;620715;-52
2022/09/04 01:20:48;;;;;;;;;;;;;;;23.16;60.47;96813.45;182048;291;621513;-47
2022/09/04 01:21:50;;;;;;;;;;;;;;;23.16;60.41;96807.91;182209;291;621357;-50
2022/09/04 01:22:52;;;;;;;;;;;;;;;23.17;60.45;96806.76;181760;291;621163;-57
2022/09/04 01:23:54;;;;;;;;;;;;;;;23.17;60.51;96813.67;181792;291;624920;-54
2022/09/04 01:24:56;;;;;;;;;;;;;;;23.18;60.53;96816.66;181750;291;621365;-50
2022/09/04 01:25:58;;;;;;;;;;;;;;;23.21;60.50;96815.98;181839;291;620128;-50
2022/09/04 01:28:05;;;;;;;;;;;;;;;23.24;60.51;96816.66;186621;287;528512;-50
2022/09/04 01:29:09;;;;;;;;;;;;;;;23.26;60.44;96814.34;183334;289;620203;-51
2022/09/04 01:30:11;;;;;;;;;;;;;;;23.28;60.42;96821.70;182644;290;589224;-55
2022/09/04 01:31:13;;;;;;;;;;;;;;;23.27;60.41;96820.10;182042;291;620071;-52
2022/09/04 01:32:14;;;;;;;;;;;;;;;23.26;60.43;96822.06;181241;292;620333;-51
2022/09/04 01:33:16;;;;;;;;;;;;;;;23.28;60.46;96823.89;181503;292;620403;-55
2022/09/04 01:34:18;;;;;;;;;;;;;;;23.30;60.49;96822.99;181373;292;620540;-54
2022/09/04 01:35:20;;;;;;;;;;;;;;;23.32;60.49;96821.25;180255;294;621582;-57
2022/09/04 01:36:26;;;;;;;;;;;;;;;23.35;60.52;96826.08;180492;294;619455;-49
2022/09/04 01:37:27;;;;;;;;;;;;;;;23.36;60.46;96827.69;180233;294;586746;-50
2022/09/04 01:38:29;;;;;;;;;;;;;;;23.35;60.48;96822.73;180665;293;621333;-53
2022/09/04 01:39:31;;;;;;;;;;;;;;;23.37;60.50;96827.91;180105;294;620352;-55
2022/09/04 01:40:33;;;;;;;;;;;;;;;23.40;60.48;96829.20;180368;294;621488;-50
2022/09/04 01:41:35;;;;;;;;;;;;;;;23.41;60.58;96830.22;180756;294;620141;-50
2022/09/04 01:42:37;;;;;;;;;;;;;;;23.42;60.46;96822.73;180225;294;621153;-49
2022/09/04 01:43:39;;;;;;;;;;;;;;;23.43;60.42;96823.76;180326;294;621444;-50
2022/09/04 01:44:41;;;;;;;;;;;;;;;23.45;60.33;96833.89;180550;294;620819;-52
2022/09/04 01:46:36;;;;;;;;;;;;;;;23.46;60.33;96825.81;186315;287;528821;-53
2022/09/04 01:47:38;;;;;;;;;;;;;;;23.49;60.33;96828.45;181213;292;621115;-48
2022/09/04 01:48:40;;;;;;;;;;;;;;;23.52;60.22;96836.88;181827;291;621645;-54
2022/09/04 01:49:42;;;;;;;;;;;;;;;23.52;60.17;96825.81;182344;291;620483;-53
2022/09/04 01:50:44;;;;;;;;;;;;;;;23.54;60.16;96829.60;181277;292;621443;-51
2022/09/04 01:51:46;;;;;;;;;;;;;;;23.54;60.16;96833.17;181482;292;621413;-54
2022/09/04 01:52:47;;;;;;;;;;;;;;;23.54;60.27;96833.75;181220;292;620246;-44
2022/09/04 01:53:49;;;;;;;;;;;;;;;23.54;60.32;96830.41;181481;292;620363;-44
2022/09/04 01:54:52;;;;;;;;;;;;;;;23.55;60.34;96832.02;181144;292;619986;-46
2022/09/04 01:55:56;;;;;;;;;;;;;;;23.57;60.36;96835.23;181217;292;619569;-54
2022/09/04 01:56:58;;;;;;;;;;;;;;;23.60;60.31;96839.28;180959;292;620603;-44
2022/09/04 01:58:00;;;;;;;;;;;;;;;23.62;60.34;96832.84;180925;292;620047;-44
2022/09/04 01:59:02;;;;;;;;;;;;;;;23.65;60.29;96839.84;181318;292;620730;-44
2022/09/04 02:00:05;;;;;;;;;;;;;;;23.69;60.26;96837.75;181511;292;619682;-47
2022/09/04 02:01:07;;;;;;;;;;;;;;;23.70;60.23;96835.20;181351;292;619344;-45
2022/09/04 02:02:09;;;;;;;;;;;;;;;23.71;60.17;96836.23;181391;292;618018;-43
2022/09/04 02:03:11;;;;;;;;;;;;;;;23.75;60.14;96836.36;180991;292;621412;-46
2022/09/04 02:04:17;;;;;;;;;;;;;;;23.77;60.10;96839.57;180922;292;620587;-44
2022/09/04 02:05:16;;;;;;;;;;;;;;;23.79;60.05;96838.63;181525;292;589352;-46
2022/09/04 02:06:20;;;;;;;;;;;;;;;23.80;60.03;96843.81;181386;292;620892;-45
2022/09/04 02:07:21;;;;;;;;;;;;;;;23.82;59.98;96841.52;181220;292;621156;-44
2022/09/04 02:08:23;;;;;;;;;;;;;;;23.84;59.94;96836.44;181394;292;621340;-44
2022/09/04 02:09:25;;;;;;;;;;;;;;;23.85;59.90;96841.39;181181;292;621147;-44
2022/09/04 02:10:28;;;;;;;;;;;;;;;23.86;59.85;96842.41;180961;292;622544;-48
2022/09/04 02:11:30;;;;;;;;;;;;;;;23.87;59.84;96841.83;181344;292;621297;-45
2022/09/04 02:12:34;;;;;;;;;;;;;;;23.87;59.80;96839.88;181595;292;621034;-46
2022/09/04 02:13:35;;;;;;;;;;;;;;;23.89;59.79;96842.28;181586;292;588141;-46
2022/09/04 02:14:38;;;;;;;;;;;;;;;23.88;59.76;96838.70;181331;292;620738;-46
2022/09/04 02:15:41;;;;;;;;;;;;;;;23.87;59.76;96832.95;181038;292;620633;-44
2022/09/04 02:16:43;;;;;;;;;;;;;;;23.88;59.76;96837.91;181585;292;620487;-43
2022/09/04 02:17:45;;;;;;;;;;;;;;;23.87;59.73;96837.69;181699;292;621557;-48
2022/09/04 02:18:47;;;;;;;;;;;;;;;23.87;59.71;96835.72;181484;292;621203;-43
2022/09/04 02:19:50;;;;;;;;;;;;;;;23.88;59.71;96837.33;181480;292;620409;-45
2022/09/04 02:20:52;;;;;;;;;;;;;;;23.86;59.70;96833.30;181366;292;620174;-47
2022/09/04 02:21:54;;;;;;;;;;;;;;;23.86;59.70;96838.27;181285;292;621043;-51
2022/09/04 02:22:56;;;;;;;;;;;;;;;23.84;59.69;96832.86;181118;292;619346;-44
2022/09/04 02:23:59;;;;;;;;;;;;;;;23.84;59.68;96832.86;180987;292;620466;-43
2022/09/04 02:25:01;;;;;;;;;;;;;;;23.83;59.70;96827.10;180892;292;623786;-48
2022/09/04 02:26:03;;;;;;;;;;;;;;;23.82;59.69;96830.45;181015;292;621659;-42
2022/09/04 02:27:05;;;;;;;;;;;;;;;23.83;59.67;96838.17;181069;292;622311;-44
2022/09/04 02:28:07;;;;;;;;;;;;;;;23.82;59.68;96842.07;181329;292;619502;-45
2022/09/04 02:29:09;;;;;;;;;;;;;;;23.80;59.67;96838.86;181324;292;621462;-44
2022/09/04 02:30:11;;;;;;;;;;;;;;;23.78;59.69;96839.21;181332;292;621205;-46
2022/09/04 02:31:13;;;;;;;;;;;;;;;23.77;59.70;96841.76;180925;292;621070;-46
2022/09/04 02:32:17;;;;;;;;;;;;;;;23.76;59.73;96841.53;181056;292;620883;-45
2022/09/04 02:33:18;;;;;;;;;;;;;;;23.74;59.74;96840.28;181484;292;588063;-43
2022/09/04 02:34:20;;;;;;;;;;;;;;;23.76;59.74;96847.65;181324;292;620785;-45
2022/09/04 02:35:22;;;;;;;;;;;;;;;23.74;59.73;96844.44;181219;292;619527;-48
2022/09/04 02:36:24;;;;;;;;;;;;;;;23.73;59.74;96841.45;181153;292;621219;-46
2022/09/04 02:37:26;;;;;;;;;;;;;;;23.71;59.77;96843.16;181287;292;621311;-48
2022/09/04 02:38:28;;;;;;;;;;;;;;;23.69;59.79;96847.44;180859;292;621476;-43
2022/09/04 02:39:30;;;;;;;;;;;;;;;23.68;59.84;96846.63;181251;292;621319;-47
2022/09/04 02:40:32;;;;;;;;;;;;;;;23.66;59.81;96848.38;181506;292;620353;-48
2022/09/04 02:41:34;;;;;;;;;;;;;;;23.66;59.84;96849.75;181267;292;622653;-43
2022/09/04 02:42:37;;;;;;;;;;;;;;;23.64;59.84;96852.08;181543;292;620446;-43
2022/09/04 02:43:39;;;;;;;;;;;;;;;23.63;59.84;96847.70;181046;292;621917;-43
2022/09/04 02:44:41;;;;;;;;;;;;;;;23.62;59.89;96852.20;181331;292;620494;-48
2022/09/04 02:45:42;;;;;;;;;;;;;;;23.62;59.88;96853.01;181430;292;621813;-45
2022/09/04 02:46:44;;;;;;;;;;;;;;;23.60;59.90;96851.73;180976;293;620345;-44
2022/09/04 02:47:46;;;;;;;;;;;;;;;23.58;59.94;96847.94;180963;293;619354;-45
2022/09/04 02:48:48;;;;;;;;;;;;;;;23.57;59.97;96857.36;180969;293;620926;-46
2022/09/04 02:49:50;;;;;;;;;;;;;;;23.57;59.98;96851.83;180707;293;621360;-44
2022/09/04 02:50:52;;;;;;;;;;;;;;;23.56;59.99;96854.95;180530;293;621333;-46
2022/09/04 02:51:54;;;;;;;;;;;;;;;23.56;60.00;96857.71;180616;293;618908;-45
2022/09/04 02:52:58;;;;;;;;;;;;;;;23.53;60.04;96852.31;180685;293;620531;-46
2022/09/04 02:54:00;;;;;;;;;;;;;;;23.52;60.05;96854.86;180921;293;620760;-43
2022/09/04 02:55:02;;;;;;;;;;;;;;;23.52;60.08;96855.43;180875;293;621238;-46
2022/09/04 02:56:07;;;;;;;;;;;;;;;23.50;60.08;96854.41;180707;293;621477;-45
2022/09/04 02:57:08;;;;;;;;;;;;;;;23.48;60.13;96850.35;180941;293;589575;-42
2022/09/04 02:58:10;;;;;;;;;;;;;;;23.48;60.16;96853.92;180491;293;620621;-44
2022/09/04 02:59:12;;;;;;;;;;;;;;;23.46;60.16;96852.09;180323;293;618931;-48
2022/09/04 03:00:18;;;;;;;;;;;;;;;23.45;60.20;96848.30;180497;293;621198;-46
2022/09/04 03:01:21;;;;;;;;;;;;;;;23.43;60.22;96847.27;180718;293;621557;-47
2022/09/04 03:02:23;;;;;;;;;;;;;;;23.43;60.23;96854.77;180700;293;621443;-46
2022/09/04 03:03:25;;;;;;;;;;;;;;;23.41;60.28;96850.97;180707;293;621200;-45
2022/09/04 03:04:27;;;;;;;;;;;;;;;23.40;60.26;96853.51;181012;293;621248;-47
2022/09/04 03:05:28;;;;;;;;;;;;;;;23.38;60.29;96851.64;181110;293;621453;-44
2022/09/04 03:06:31;;;;;;;;;;;;;;;23.37;60.33;96852.80;180681;293;620687;-46
2022/09/04 03:07:33;;;;;;;;;;;;;;;23.35;60.35;96857.30;180888;293;621472;-46
2022/09/04 03:08:35;;;;;;;;;;;;;;;23.34;60.35;96853.51;180728;293;621523;-44
2022/09/04 03:09:37;;;;;;;;;;;;;;;23.33;60.38;96853.28;180912;293;619983;-48
2022/09/04 03:10:39;;;;;;;;;;;;;;;23.32;60.38;96851.67;181244;293;619508;-45
2022/09/04 03:11:41;;;;;;;;;;;;;;;23.31;60.40;96852.83;181252;293;621342;-47
2022/09/04 03:12:43;;;;;;;;;;;;;;;23.31;60.44;96852.83;180930;293;620585;-47
2022/09/04 03:13:45;;;;;;;;;;;;;;;23.29;60.45;96851.00;181042;293;619163;-44
2022/09/04 03:14:47;;;;;;;;;;;;;;;23.28;60.47;96850.16;181024;293;619577;-46
2022/09/04 03:15:49;;;;;;;;;;;;;;;23.27;60.49;96847.75;180954;293;620010;-48
2022/09/04 03:16:51;;;;;;;;;;;;;;;23.28;60.50;96854.89;180931;293;620978;-46
2022/09/04 03:17:54;;;;;;;;;;;;;;;23.27;60.52;96849.13;181240;293;620244;-43
2022/09/04 03:18:56;;;;;;;;;;;;;;;23.25;60.55;96851.45;180775;293;621487;-45
2022/09/04 03:19:59;;;;;;;;;;;;;;;23.23;60.59;96851.80;180943;293;619769;-43
2022/09/04 03:21:01;;;;;;;;;;;;;;;23.23;60.60;96857.91;180896;293;622707;-47
2022/09/04 03:22:02;;;;;;;;;;;;;;;23.23;60.63;96857.91;180948;293;619441;-46
2022/09/04 03:23:04;;;;;;;;;;;;;;;23.21;60.63;96853.31;181091;293;620763;-47
2022/09/04 03:24:06;;;;;;;;;;;;;;;23.21;60.67;96860.22;181278;293;619495;-47
2022/09/04 03:25:08;;;;;;;;;;;;;;;23.20;60.69;96862.77;180671;293;621028;-43
2022/09/04 03:26:10;;;;;;;;;;;;;;;23.19;60.72;96865.30;180646;293;621035;-47
2022/09/04 03:27:12;;;;;;;;;;;;;;;23.18;60.72;96859.52;180793;293;621559;-43
2022/09/04 03:28:14;;;;;;;;;;;;;;;23.18;60.73;96858.97;180799;293;622293;-49
2022/09/04 03:29:20;;;;;;;;;;;;;;;23.19;60.73;96862.54;180796;293;620067;-46
2022/09/04 03:30:20;;;;;;;;;;;;;;;23.17;60.74;96866.20;180922;293;586872;-45
2022/09/04 03:31:22;;;;;;;;;;;;;;;23.16;60.77;96864.59;181294;293;620045;-46
2022/09/04 03:32:24;;;;;;;;;;;;;;;23.15;60.78;96861.60;180904;293;619839;-45
2022/09/04 03:33:27;;;;;;;;;;;;;;;23.14;60.81;96862.18;180710;293;620451;-43
2022/09/04 03:34:29;;;;;;;;;;;;;;;23.13;60.82;96862.53;180831;293;621690;-45
2022/09/04 03:35:30;;;;;;;;;;;;;;;23.09;60.85;96864.62;180969;293;621331;-48
2022/09/04 03:36:32;;;;;;;;;;;;;;;23.11;60.88;96866.23;180860;293;620047;-45
2022/09/04 03:37:34;;;;;;;;;;;;;;;23.11;60.90;96865.65;180586;293;620111;-44
2022/09/04 03:38:36;;;;;;;;;;;;;;;23.09;60.92;96867.38;180928;293;619275;-46
2022/09/04 03:39:38;;;;;;;;;;;;;;;23.08;60.95;96870.50;180618;293;621142;-44
2022/09/04 03:40:41;;;;;;;;;;;;;;;23.06;60.98;96870.02;180797;293;621104;-46
2022/09/04 03:41:44;;;;;;;;;;;;;;;23.06;60.99;96870.02;180856;293;621280;-44
2022/09/04 03:42:46;;;;;;;;;;;;;;;23.05;61.00;96870.59;180755;293;621649;-48
2022/09/04 03:43:48;;;;;;;;;;;;;;;23.05;61.01;96870.59;180641;293;621120;-47
2022/09/04 03:44:50;;;;;;;;;;;;;;;23.05;61.00;96874.73;181076;293;619673;-46
2022/09/04 03:45:51;;;;;;;;;;;;;;;23.04;61.02;96873.12;180926;293;622314;-47
2022/09/04 03:46:53;;;;;;;;;;;;;;;23.04;61.04;96870.95;181075;293;618774;-44
2022/09/04 03:47:55;;;;;;;;;;;;;;;23.03;61.06;96875.66;180871;293;621275;-45
2022/09/04 03:48:57;;;;;;;;;;;;;;;23.03;61.08;96877.63;179801;294;621079;-47
2022/09/04 03:49:59;;;;;;;;;;;;;;;22.99;61.10;96876.14;180745;293;618736;-44
2022/09/04 03:51:01;;;;;;;;;;;;;;;23.01;61.12;96876.59;179803;294;621392;-46
2022/09/04 03:52:04;;;;;;;;;;;;;;;22.99;61.15;96876.14;180587;293;621427;-49
2022/09/04 03:53:06;;;;;;;;;;;;;;;23.01;61.16;96883.51;179862;294;621216;-46
2022/09/04 03:54:08;;;;;;;;;;;;;;;23.00;61.17;96879.71;180782;293;621043;-45
2022/09/04 03:55:10;;;;;;;;;;;;;;;22.98;61.18;96878.68;180107;294;620617;-45
2022/09/04 03:56:12;;;;;;;;;;;;;;;22.97;61.21;96877.07;179949;294;621227;-46
2022/09/04 03:57:14;;;;;;;;;;;;;;;22.97;61.23;96881.22;180657;293;621722;-45
2022/09/04 03:58:16;;;;;;;;;;;;;;;22.96;61.24;96882.34;180453;294;621364;-46
2022/09/04 03:59:18;;;;;;;;;;;;;;;22.96;61.25;96883.72;180500;293;619528;-44
2022/09/04 04:00:20;;;;;;;;;;;;;;;22.96;61.27;96887.06;179924;294;621197;-43
2022/09/04 04:01:21;;;;;;;;;;;;;;;22.96;61.29;96892.02;180859;293;621280;-46
2022/09/04 04:02:23;;;;;;;;;;;;;;;22.95;61.31;96884.07;180406;294;621984;-44
2022/09/04 04:03:30;;;;;;;;;;;;;;;22.95;61.30;96884.88;181158;293;621073;-44
2022/09/04 04:04:33;;;;;;;;;;;;;;;22.94;61.33;96890.75;181203;293;589003;-49
2022/09/04 04:05:35;;;;;;;;;;;;;;;22.92;61.36;96889.72;181334;292;588619;-43
2022/09/04 04:06:36;;;;;;;;;;;;;;;22.91;61.38;96888.11;180034;294;590643;-47
2022/09/04 04:07:38;;;;;;;;;;;;;;;22.91;61.40;96886.73;180169;294;621467;-47
2022/09/04 04:08:40;;;;;;;;;;;;;;;22.92;61.44;96894.45;181206;293;618897;-47
2022/09/04 04:09:42;;;;;;;;;;;;;;;22.92;61.48;96895.25;180706;293;621645;-47
2022/09/04 04:10:44;;;;;;;;;;;;;;;22.90;61.48;96887.89;179783;294;621283;-46
2022/09/04 04:11:46;;;;;;;;;;;;;;;22.89;61.47;96891.00;180549;293;621379;-48
2022/09/04 04:12:48;;;;;;;;;;;;;;;22.89;61.52;96889.05;179816;294;620848;-45
2022/09/04 04:13:50;;;;;;;;;;;;;;;22.89;61.54;96891.00;180808;293;621552;-43
2022/09/04 04:14:52;;;;;;;;;;;;;;;22.88;61.58;96890.20;180063;294;620449;-47
2022/09/04 04:15:54;;;;;;;;;;;;;;;22.86;61.59;96893.85;181221;293;620046;-45
2022/09/04 04:16:56;;;;;;;;;;;;;;;22.87;61.60;96891.92;180298;294;620343;-45
2022/09/04 04:17:58;;;;;;;;;;;;;;;22.86;61.62;96893.85;180838;293;620425;-45
2022/09/04 04:19:02;;;;;;;;;;;;;;;22.85;61.63;96896.39;179699;294;621039;-49
2022/09/04 04:20:04;;;;;;;;;;;;;;;22.86;61.67;96892.47;180774;293;620191;-46
2022/09/04 04:21:06;;;;;;;;;;;;;;;22.84;61.69;96890.63;180211;294;620270;-48
2022/09/04 04:22:08;;;;;;;;;;;;;;;22.84;61.69;96892.02;180985;293;619767;-43
2022/09/04 04:23:14;;;;;;;;;;;;;;;22.84;61.74;96892.59;180321;294;621496;-44
2022/09/04 04:24:14;;;;;;;;;;;;;;;22.83;61.74;96891.76;180571;294;587722;-45
2022/09/04 04:25:16;;;;;;;;;;;;;;;22.83;61.76;96890.95;180110;294;620812;-47
2022/09/04 04:26:18;;;;;;;;;;;;;;;22.81;61.79;96896.25;180946;293;620089;-45
2022/09/04 04:27:20;;;;;;;;;;;;;;;22.81;61.80;96892.11;180972;293;621092;-45
2022/09/04 04:28:22;;;;;;;;;;;;;;;22.82;61.82;96898.44;180855;293;620093;-45
2022/09/04 04:29:24;;;;;;;;;;;;;;;22.81;61.83;96898.21;180624;293;622087;-46
2022/09/04 04:30:26;;;;;;;;;;;;;;;22.80;61.85;96894.64;180711;293;619543;-46
2022/09/04 04:31:33;;;;;;;;;;;;;;;22.80;61.85;96897.41;180478;293;621261;-45
2022/09/04 04:32:32;;;;;;;;;;;;;;;22.80;61.86;96903.51;180967;293;592017;-46
2022/09/04 04:33:34;;;;;;;;;;;;;;;22.80;61.89;96911.80;180906;293;620936;-44
2022/09/04 04:34:36;;;;;;;;;;;;;;;22.79;61.88;96908.23;180796;293;621492;-45
2022/09/04 04:35:38;;;;;;;;;;;;;;;22.79;61.90;96912.95;180834;293;619501;-44
2022/09/04 04:36:40;;;;;;;;;;;;;;;22.78;61.93;96905.81;180648;293;621192;-46
2022/09/04 04:37:42;;;;;;;;;;;;;;;22.77;61.98;96910.54;180512;293;621154;-47
2022/09/04 04:38:45;;;;;;;;;;;;;;;22.78;61.99;96909.96;180615;293;620851;-45
2022/09/04 04:39:47;;;;;;;;;;;;;;;22.76;61.99;96906.74;179747;294;619772;-44
2022/09/04 04:40:49;;;;;;;;;;;;;;;22.77;62.02;96915.26;181060;293;620310;-48
2022/09/04 04:42:03;;;;;;;;;;;;;;;22.76;62.01;96915.84;180103;294;620653;-46
2022/09/04 04:43:05;;;;;;;;;;;;;;;22.75;62.02;96913.39;180926;293;620582;-44
2022/09/04 04:44:07;;;;;;;;;;;;;;;22.77;62.04;96911.11;179804;294;620542;-45
2022/09/04 04:46:32;;;;;;;;;;;;;;;22.75;62.08;96909.25;180188;294;580055;-44
2022/09/04 04:47:33;;;;;;;;;;;;;;;22.74;62.10;96911.78;180605;294;588089;-47
2022/09/04 04:48:35;;;;;;;;;;;;;;;22.74;62.12;96911.78;180480;294;620254;-47
2022/09/04 04:49:37;;;;;;;;;;;;;;;22.73;62.12;96911.55;180059;294;620470;-43
2022/09/04 04:50:39;;;;;;;;;;;;;;;22.72;62.13;96914.89;180415;294;618928;-46
2022/09/04 04:51:41;;;;;;;;;;;;;;;22.72;62.15;96919.61;180125;294;621904;-44
2022/09/04 04:52:43;;;;;;;;;;;;;;;22.72;62.17;96916.84;180455;293;619137;-48
2022/09/04 04:53:45;;;;;;;;;;;;;;;22.71;62.18;96913.86;180478;294;621359;-45
2022/09/04 04:54:47;;;;;;;;;;;;;;;22.71;62.20;96924.33;180389;294;620471;-44
2022/09/04 04:55:49;;;;;;;;;;;;;;;22.70;62.23;96921.91;180211;294;621189;-44
2022/09/04 04:56:51;;;;;;;;;;;;;;;22.70;62.24;96924.68;180318;294;620528;-47
2022/09/04 04:57:53;;;;;;;;;;;;;;;22.69;62.24;96925.25;180425;294;619776;-48
2022/09/04 04:58:55;;;;;;;;;;;;;;;22.69;62.27;96919.73;181135;293;621670;-46
2022/09/04 05:00:02;;;;;;;;;;;;;;;22.69;62.28;96921.11;179909;294;621588;-44
2022/09/04 05:01:03;;;;;;;;;;;;;;;22.69;62.29;96928.02;180069;294;587869;-47
2022/09/04 05:02:06;;;;;;;;;;;;;;;22.69;62.30;96925.83;180166;294;589564;-49
2022/09/04 05:03:08;;;;;;;;;;;;;;;22.67;62.32;96925.38;180160;294;621395;-44
2022/09/04 05:04:10;;;;;;;;;;;;;;;22.68;62.34;96931.13;180995;293;621622;-45
2022/09/04 05:05:12;;;;;;;;;;;;;;;22.67;62.35;96926.76;180693;293;620895;-46
2022/09/04 05:06:14;;;;;;;;;;;;;;;22.66;62.37;96924.57;180581;293;621146;-47
2022/09/04 05:07:16;;;;;;;;;;;;;;;22.68;62.40;96933.89;180593;293;620385;-46
2022/09/04 05:08:18;;;;;;;;;;;;;;;22.67;62.41;96935.05;180772;293;622770;-44
2022/09/04 05:09:20;;;;;;;;;;;;;;;22.65;62.40;96932.62;180755;293;621024;-44
2022/09/04 05:10:22;;;;;;;;;;;;;;;22.66;62.42;96937.58;180858;293;621230;-47
2022/09/04 05:11:24;;;;;;;;;;;;;;;22.65;62.44;96934.55;181178;293;620855;-44
2022/09/04 05:12:26;;;;;;;;;;;;;;;22.64;62.45;96934.33;181163;293;620213;-48
2022/09/04 05:13:28;;;;;;;;;;;;;;;22.65;62.48;96935.94;181064;293;619967;-44
2022/09/04 05:14:30;;;;;;;;;;;;;;;22.64;62.49;96934.33;180930;293;621074;-46
2022/09/04 05:15:32;;;;;;;;;;;;;;;22.64;62.51;96935.70;180930;293;621199;-45
2022/09/04 05:16:34;;;;;;;;;;;;;;;22.64;62.50;96939.85;180782;293;621454;-49
2022/09/04 05:17:36;;;;;;;;;;;;;;;22.63;62.53;96942.38;180659;293;621759;-46
2022/09/04 05:18:38;;;;;;;;;;;;;;;22.63;62.54;96939.63;180135;294;620387;-43
2022/09/04 05:19:40;;;;;;;;;;;;;;;22.62;62.55;96942.96;181145;293;621228;-44
2022/09/04 05:20:42;;;;;;;;;;;;;;;22.61;62.57;96941.92;180280;294;619430;-46
2022/09/04 05:21:43;;;;;;;;;;;;;;;22.62;62.59;96948.48;180979;293;621283;-44
2022/09/04 05:22:45;;;;;;;;;;;;;;;22.62;62.61;96947.68;180011;294;620851;-46